TimeEDT,TemperatureF,Dew PointF,Humidity,Sea Level PressureIn,VisibilityMPH,Wind Direction,Wind SpeedMPH,Gust SpeedMPH,PrecipitationIn,Events,Conditions,WindDirDegrees,DateUTC
12:52 AM,71.1,69.1,93,29.80,6.0,Calm,Calm,-,N/A,,Clear,0,2013-06-26 04:52:00
1:52 AM,71.1,69.1,93,29.77,6.0,Calm,Calm,-,0.01,,Partly Cloudy,0,2013-06-26 05:52:00
2:52 AM,71.1,69.1,93,29.76,5.0,Calm,Calm,-,N/A,,Scattered Clouds,0,2013-06-26 06:52:00
3:52 AM,70.0,68.0,93,29.76,6.0,ENE,3.5,-,N/A,,Clear,70,2013-06-26 07:52:00
4:52 AM,70.0,68.0,93,29.76,5.0,Calm,Calm,-,N/A,,Clear,0,2013-06-26 08:52:00
5:05 AM,69.8,68.0,94,29.77,5.0,North,3.5,-,N/A,,Scattered Clouds,360,2013-06-26 09:05:00
5:52 AM,70.0,68.0,93,29.78,4.0,Calm,Calm,-,N/A,,Clear,0,2013-06-26 09:52:00
6:28 AM,69.8,68.0,94,29.78,5.0,Calm,Calm,-,N/A,,Partly Cloudy,0,2013-06-26 10:28:00
6:52 AM,71.1,69.1,93,29.79,4.0,Calm,Calm,-,N/A,,Partly Cloudy,0,2013-06-26 10:52:00
7:52 AM,73.9,70.0,87,29.79,7.0,Calm,Calm,-,N/A,,Clear,0,2013-06-26 11:52:00
8:52 AM,78.1,71.1,79,29.80,8.0,Calm,Calm,-,N/A,,Clear,0,2013-06-26 12:52:00
9:52 AM,81.0,66.9,62,29.79,10.0,NW,8.1,-,N/A,,Clear,310,2013-06-26 13:52:00
10:52 AM,82.0,68.0,62,29.79,10.0,West,8.1,-,N/A,,Partly Cloudy,260,2013-06-26 14:52:00
11:52 AM,82.0,66.0,58,29.80,9.0,West,6.9,-,N/A,,Mostly Cloudy,270,2013-06-26 15:52:00
12:52 PM,82.9,66.0,56,29.79,10.0,NW,5.8,-,N/A,,Mostly Cloudy,310,2013-06-26 16:52:00
1:52 PM,84.0,66.0,55,29.78,10.0,WNW,6.9,-,N/A,,Scattered Clouds,290,2013-06-26 17:52:00
2:52 PM,78.1,72.0,81,29.80,9.0,WNW,5.8,-,0.03,Rain,Light Rain,300,2013-06-26 18:52:00
3:05 PM,75.2,71.6,89,29.80,8.0,North,5.8,-,N/A,Thunderstorm,Thunderstorm,10,2013-06-26 19:05:00
3:20 PM,78.8,73.4,83,29.80,9.0,WNW,3.5,-,N/A,,Mostly Cloudy,290,2013-06-26 19:20:00
3:52 PM,80.1,70.0,71,29.78,10.0,WSW,8.1,-,N/A,,Scattered Clouds,250,2013-06-26 19:52:00
4:52 PM,79.0,70.0,74,29.79,10.0,West,5.8,-,N/A,,Clear,260,2013-06-26 20:52:00
5:21 PM,78.8,69.8,74,29.80,10.0,WSW,6.9,-,N/A,,Partly Cloudy,250,2013-06-26 21:21:00
5:52 PM,79.0,70.0,74,29.79,10.0,WSW,5.8,-,N/A,,Partly Cloudy,250,2013-06-26 21:52:00
6:52 PM,77.0,70.0,79,29.81,8.0,West,3.5,-,0.00,Rain,Light Rain,260,2013-06-26 22:52:00
7:52 PM,75.9,71.1,85,29.81,8.0,SSW,3.5,-,0.00,,Partly Cloudy,200,2013-06-26 23:52:00
8:52 PM,75.0,70.0,84,29.81,9.0,Calm,Calm,-,0.00,,Mostly Cloudy,0,2013-06-27 00:52:00
9:52 PM,73.0,71.1,93,29.83,7.0,Calm,Calm,-,N/A,,Clear,0,2013-06-27 01:52:00
10:52 PM,72.0,70.0,93,29.83,5.0,Calm,Calm,-,N/A,,Scattered Clouds,0,2013-06-27 02:52:00
11:52 PM,72.0,69.1,91,29.84,7.0,South,4.6,-,N/A,,Overcast,190,2013-06-27 03:52:00